Time;durP1;ratioP1;P1;durP2;ratioP2;P2;SDS_P1;SDS_P2;PMS_P1;PMS_P2;Temp;Humidity;BMP_temperature;BMP_pressure;BME280_temperature;BME280_humidity;BME280_pressure;Samples;Min_cycle;Max_cycle;Signal;HPM_P1;HPM_P2
2022/11/11 00:01:45;;;;;;;;;;;8.90;67.50;;;;;;5023389;28;92307;-38
2022/11/11 00:04:10;;;;;;;;;;;8.80;67.50;;;;;;5019960;28;93253;-37
2022/11/11 00:06:36;;;;;;;;;;;8.90;67.50;;;;;;5020436;28;92139;-37
2022/11/11 00:09:01;;;;;;;;;;;8.90;67.50;;;;;;5020442;28;92346;-37
2022/11/11 00:11:27;;;;;;;;;;;8.90;67.40;;;;;;5019892;28;92990;-37
2022/11/11 00:13:52;;;;;;;;;;;8.90;67.40;;;;;;5020847;28;91471;-37
2022/11/11 00:16:18;;;;;;;;;;;8.90;67.30;;;;;;5020183;28;92270;-37
2022/11/11 00:26:45;;;;;;;;;;;8.80;67.40;;;;;;5019875;28;92132;-37
2022/11/11 00:29:11;;;;;;;;;;;8.80;67.40;;;;;;5020077;28;92344;-37
2022/11/11 00:32:21;;;;;;;;;;;8.80;67.50;;;;;;5019554;28;93093;-37
2022/11/11 00:34:21;;;;;;;;;;;8.80;67.40;;;;;;5019120;28;92132;-37
2022/11/11 00:36:47;;;;;;;;;;;8.80;67.40;;;;;;5020000;28;92505;-37
2022/11/11 00:39:12;;;;;;;;;;;8.80;67.40;;;;;;5019550;28;91531;-37
2022/11/11 00:41:38;;;;;;;;;;;8.80;67.40;;;;;;5019829;28;92173;-37
2022/11/11 00:44:03;;;;;;;;;;;8.70;67.40;;;;;;5020032;28;92325;-37
2022/11/11 00:51:57;;;;;;;;;;;8.70;67.40;;;;;;5019448;28;92306;-37
2022/11/11 00:54:22;;;;;;;;;;;8.70;67.40;;;;;;5019637;28;92167;-37
2022/11/11 00:56:48;;;;;;;;;;;8.70;67.50;;;;;;5019725;28;92837;-37
2022/11/11 00:59:13;;;;;;;;;;;8.70;67.40;;;;;;5018934;28;94296;-37
2022/11/11 01:01:39;;;;;;;;;;;8.70;67.30;;;;;;5019430;28;92186;-37
2022/11/11 01:04:04;;;;;;;;;;;8.70;67.50;;;;;;5020155;28;92319;-37
2022/11/11 01:06:30;;;;;;;;;;;8.70;67.30;;;;;;5018896;28;92943;-37
2022/11/11 01:08:56;;;;;;;;;;;8.70;67.30;;;;;;5022339;28;92357;-37
2022/11/11 01:11:22;;;;;;;;;;;8.60;67.30;;;;;;5017954;28;95089;-37
2022/11/11 01:13:48;;;;;;;;;;;8.60;67.30;;;;;;5019236;28;92180;-37
2022/11/11 01:16:21;;;;;;;;;;;8.60;67.30;;;;;;5019482;28;91944;-37
2022/11/11 01:18:47;;;;;;;;;;;8.60;67.90;;;;;;5018775;28;93027;-37
2022/11/11 01:21:14;;;;;;;;;;;8.60;67.90;;;;;;5019073;28;92210;-37
2022/11/11 01:23:41;;;;;;;;;;;8.70;67.30;;;;;;5019327;28;92484;-37
2022/11/11 01:26:06;;;;;;;;;;;8.60;67.20;;;;;;5018611;28;91984;-37
2022/11/11 01:28:32;;;;;;;;;;;8.60;67.40;;;;;;5020068;28;91497;-37
2022/11/11 01:31:05;;;;;;;;;;;8.60;67.30;;;;;;5021602;28;92108;-37
2022/11/11 01:33:31;;;;;;;;;;;8.50;67.30;;;;;;5019109;28;92317;-37
2022/11/11 01:36:01;;;;;;;;;;;8.60;67.30;;;;;;5018027;28;93984;-37
2022/11/11 01:38:27;;;;;;;;;;;8.50;67.20;;;;;;5018635;28;93340;-37
2022/11/11 01:40:52;;;;;;;;;;;8.50;67.30;;;;;;5019045;28;92136;-37
2022/11/11 01:43:20;;;;;;;;;;;8.50;67.30;;;;;;5019173;28;92370;-37
2022/11/11 01:45:45;;;;;;;;;;;8.50;67.40;;;;;;5018290;28;92904;-37
2022/11/11 01:51:24;;;;;;;;;;;8.50;67.30;;;;;;5020208;28;91978;-37
2022/11/11 01:53:53;;;;;;;;;;;8.50;67.20;;;;;;5019689;28;91267;-37
2022/11/11 01:56:19;;;;;;;;;;;8.50;67.30;;;;;;5018772;28;93354;-37
2022/11/11 01:58:44;;;;;;;;;;;8.50;67.40;;;;;;5017964;28;93181;-37
2022/11/11 02:01:09;;;;;;;;;;;8.40;67.30;;;;;;5019541;28;93104;-37
2022/11/11 02:03:38;;;;;;;;;;;8.50;67.20;;;;;;5022576;28;93526;-37
2022/11/11 02:06:04;;;;;;;;;;;8.40;67.30;;;;;;5021748;28;92939;-37
2022/11/11 02:08:34;;;;;;;;;;;8.40;67.30;;;;;;5022135;28;92155;-37
2022/11/11 02:11:01;;;;;;;;;;;8.40;67.20;;;;;;5021873;28;93741;-37
2022/11/11 02:16:11;;;;;;;;;;;8.40;67.20;;;;;;5022228;28;92109;-37
2022/11/11 02:18:36;;;;;;;;;;;8.40;67.20;;;;;;5022264;28;92764;-37
2022/11/11 02:21:02;;;;;;;;;;;8.40;67.20;;;;;;5022228;28;92094;-37
2022/11/11 02:23:28;;;;;;;;;;;8.40;67.20;;;;;;5022035;28;92559;-37
2022/11/11 02:25:54;;;;;;;;;;;8.40;67.20;;;;;;5020565;28;94003;-38
2022/11/11 02:28:22;;;;;;;;;;;8.40;67.30;;;;;;5021940;28;92073;-38
2022/11/11 02:30:48;;;;;;;;;;;8.40;67.20;;;;;;5021787;28;92129;-37
2022/11/11 02:33:13;;;;;;;;;;;8.40;67.20;;;;;;5021577;28;92987;-37
2022/11/11 02:35:44;;;;;;;;;;;8.40;67.30;;;;;;5024511;28;92444;-37
2022/11/11 02:38:12;;;;;;;;;;;8.30;67.30;;;;;;5021044;28;92205;-37
2022/11/11 02:41:55;;;;;;;;;;;8.30;67.20;;;;;;5021712;28;92179;-37
2022/11/11 02:43:25;;;;;;;;;;;8.30;67.30;;;;;;5021278;28;93278;-37
2022/11/11 02:45:50;;;;;;;;;;;8.30;67.40;;;;;;5021374;28;93192;-37
2022/11/11 02:48:16;;;;;;;;;;;8.30;67.30;;;;;;5021671;28;92101;-37
2022/11/11 02:50:41;;;;;;;;;;;8.30;67.30;;;;;;5021083;28;92689;-37
2022/11/11 02:53:07;;;;;;;;;;;8.30;67.20;;;;;;5021039;28;92949;-37
2022/11/11 02:55:32;;;;;;;;;;;8.20;67.20;;;;;;5021571;28;92017;-37
2022/11/11 02:57:58;;;;;;;;;;;8.30;67.30;;;;;;5024116;28;92591;-37
2022/11/11 03:00:23;;;;;;;;;;;8.30;67.20;;;;;;5021511;28;92117;-37
2022/11/11 03:02:49;;;;;;;;;;;8.20;67.20;;;;;;5021335;28;92399;-37
2022/11/11 03:05:14;;;;;;;;;;;8.20;67.20;;;;;;5020924;28;93326;-37
2022/11/11 03:07:40;;;;;;;;;;;8.20;67.20;;;;;;5021554;28;91575;-37
2022/11/11 03:10:06;;;;;;;;;;;8.30;67.30;;;;;;5021404;28;92013;-37
2022/11/11 03:12:31;;;;;;;;;;;8.30;67.20;;;;;;5019848;28;93076;-37
2022/11/11 03:14:57;;;;;;;;;;;8.20;67.20;;;;;;5020992;28;93222;-37
2022/11/11 03:23:02;;;;;;;;;;;8.20;67.50;;;;;;5021524;28;91906;-37
2022/11/11 03:25:37;;;;;;;;;;;8.10;67.40;;;;;;5020387;28;94731;-37
2022/11/11 03:28:13;;;;;;;;;;;8.20;67.50;;;;;;5021324;28;93195;-37
2022/11/11 03:30:39;;;;;;;;;;;8.10;67.40;;;;;;5020745;28;92571;-37
2022/11/11 03:33:05;;;;;;;;;;;8.10;67.40;;;;;;5020854;28;95203;-37
2022/11/11 03:35:31;;;;;;;;;;;8.10;67.50;;;;;;5020762;28;92226;-37
2022/11/11 03:38:14;;;;;;;;;;;8.10;67.50;;;;;;5020944;28;92367;-37
2022/11/11 03:40:43;;;;;;;;;;;8.10;67.50;;;;;;5019674;28;93898;-37
2022/11/11 03:43:09;;;;;;;;;;;8.10;67.50;;;;;;5024063;28;92291;-37
2022/11/11 03:45:34;;;;;;;;;;;8.10;67.50;;;;;;5020193;28;93037;-37
2022/11/11 03:48:00;;;;;;;;;;;8.10;67.60;;;;;;5020861;28;92174;-37
2022/11/11 03:50:25;;;;;;;;;;;8.10;67.70;;;;;;5020771;28;92481;-37
2022/11/11 03:52:51;;;;;;;;;;;8.00;67.60;;;;;;5020100;28;93235;-37
2022/11/11 03:55:16;;;;;;;;;;;8.00;67.70;;;;;;5020609;28;92138;-37
2022/11/11 03:57:44;;;;;;;;;;;8.00;67.50;;;;;;5021037;28;92243;-37
2022/11/11 04:00:10;;;;;;;;;;;8.00;67.70;;;;;;5019703;28;94591;-37
2022/11/11 04:10:48;;;;;;;;;;;8.00;67.70;;;;;;5017898;28;92005;-37
2022/11/11 04:16:07;;;;;;;;;;;8.00;67.80;;;;;;5019317;28;91973;-37
2022/11/11 04:24:01;;;;;;;;;;;7.90;67.90;;;;;;5020882;28;91788;-37
2022/11/11 04:26:27;;;;;;;;;;;7.90;67.80;;;;;;5022771;28;92103;-37
2022/11/11 04:32:34;;;;;;;;;;;7.90;68.10;;;;;;5016855;28;92981;-37
2022/11/11 04:34:22;;;;;;;;;;;7.90;67.70;;;;;;5019066;28;93176;-37
2022/11/11 04:36:47;;;;;;;;;;;7.80;67.90;;;;;;5019568;28;92232;-37
2022/11/11 04:41:57;;;;;;;;;;;7.90;68.10;;;;;;5019565;28;92307;-37
2022/11/11 04:47:06;;;;;;;;;;;7.80;67.80;;;;;;5019784;28;92106;-37
2022/11/11 04:49:32;;;;;;;;;;;7.80;68.10;;;;;;5022700;28;92406;-37
2022/11/11 04:57:25;;;;;;;;;;;7.80;68.00;;;;;;5017504;28;93091;-37
2022/11/11 04:59:51;;;;;;;;;;;7.80;68.30;;;;;;5019682;28;93615;-37
2022/11/11 05:05:00;;;;;;;;;;;7.80;68.20;;;;;;5019784;28;92482;-37
2022/11/11 05:10:10;;;;;;;;;;;7.80;68.60;;;;;;5017834;28;92316;-37
2022/11/11 05:12:35;;;;;;;;;;;7.80;68.20;;;;;;5022620;28;92318;-37
2022/11/11 05:23:13;;;;;;;;;;;7.70;68.60;;;;;;5018212;28;93242;-37
2022/11/11 05:25:38;;;;;;;;;;;7.70;68.60;;;;;;5019078;28;92749;-37
2022/11/11 05:28:04;;;;;;;;;;;7.70;68.60;;;;;;5019465;28;92295;-37
2022/11/11 05:30:29;;;;;;;;;;;7.70;68.70;;;;;;5018782;28;93149;-37
2022/11/11 05:32:55;;;;;;;;;;;7.60;68.60;;;;;;5019399;28;92017;-37
2022/11/11 05:35:20;;;;;;;;;;;7.60;68.50;;;;;;5022896;28;92329;-38
2022/11/11 05:40:30;;;;;;;;;;;7.60;69.00;;;;;;5026467;28;91741;-37
2022/11/11 05:42:56;;;;;;;;;;;7.60;68.90;;;;;;5025273;28;92824;-37
2022/11/11 05:45:23;;;;;;;;;;;7.60;68.80;;;;;;5025615;28;92145;-37
2022/11/11 05:47:48;;;;;;;;;;;7.60;68.80;;;;;;5025208;28;93045;-37
2022/11/11 05:50:14;;;;;;;;;;;7.60;68.90;;;;;;5025276;28;93058;-37
2022/11/11 05:52:45;;;;;;;;;;;7.60;69.00;;;;;;5025439;28;92453;-37
2022/11/11 05:55:11;;;;;;;;;;;7.60;68.90;;;;;;5028437;28;92375;-37
2022/11/11 05:57:36;;;;;;;;;;;7.60;68.80;;;;;;5025570;28;92197;-37
2022/11/11 06:00:02;;;;;;;;;;;7.60;68.90;;;;;;5025489;28;92339;-38
2022/11/11 06:02:28;;;;;;;;;;;7.50;69.40;;;;;;5024491;28;93321;-37
2022/11/11 06:04:54;;;;;;;;;;;7.60;69.10;;;;;;5026028;28;91545;-37
2022/11/11 06:07:19;;;;;;;;;;;7.60;69.00;;;;;;5025092;28;93385;-37
2022/11/11 06:09:45;;;;;;;;;;;7.50;69.00;;;;;;5025046;28;93004;-37
2022/11/11 06:12:10;;;;;;;;;;;7.60;69.00;;;;;;5024822;28;93178;-37
2022/11/11 06:14:36;;;;;;;;;;;7.50;69.20;;;;;;5025366;28;93435;-37
2022/11/11 06:17:01;;;;;;;;;;;7.50;69.20;;;;;;5027859;28;92996;-37
2022/11/11 06:19:27;;;;;;;;;;;7.50;69.20;;;;;;5025225;28;92870;-37
2022/11/11 06:21:59;;;;;;;;;;;7.50;69.40;;;;;;5024922;28;93130;-37
2022/11/11 06:24:25;;;;;;;;;;;7.50;69.20;;;;;;5025306;28;91922;-38
2022/11/11 06:26:50;;;;;;;;;;;7.50;69.40;;;;;;5025244;28;92407;-37
2022/11/11 06:29:16;;;;;;;;;;;7.50;70.10;;;;;;5025299;28;92567;-37
2022/11/11 06:31:41;;;;;;;;;;;7.50;69.70;;;;;;5024864;28;92166;-37
2022/11/11 06:34:07;;;;;;;;;;;7.50;69.50;;;;;;5024996;28;92391;-37
2022/11/11 06:36:32;;;;;;;;;;;7.50;69.40;;;;;;5023616;28;94136;-37
2022/11/11 06:38:58;;;;;;;;;;;7.50;69.60;;;;;;5027980;28;92389;-37
2022/11/11 06:41:24;;;;;;;;;;;7.50;69.60;;;;;;5024782;28;92867;-37
2022/11/11 06:43:50;;;;;;;;;;;7.50;69.40;;;;;;5024892;28;92032;-37
2022/11/11 06:46:19;;;;;;;;;;;7.50;69.50;;;;;;5024750;28;93791;-37
2022/11/11 06:48:45;;;;;;;;;;;7.50;70.00;;;;;;5019889;28;93222;-37
2022/11/11 06:51:11;;;;;;;;;;;7.50;70.00;;;;;;5021332;28;92242;-37
2022/11/11 06:53:37;;;;;;;;;;;7.50;70.50;;;;;;5021898;28;93853;-37
2022/11/11 06:56:02;;;;;;;;;;;7.50;70.00;;;;;;5021116;28;92989;-37
2022/11/11 06:58:28;;;;;;;;;;;7.50;71.00;;;;;;5021651;28;92191;-37
2022/11/11 07:00:53;;;;;;;;;;;7.40;70.40;;;;;;5023603;28;92874;-37
2022/11/11 07:03:20;;;;;;;;;;;7.40;70.60;;;;;;5020986;28;92247;-37
2022/11/11 07:05:45;;;;;;;;;;;7.50;70.40;;;;;;5021038;28;93576;-37
2022/11/11 07:08:12;;;;;;;;;;;7.50;70.50;;;;;;5020739;28;93458;-37
2022/11/11 07:10:38;;;;;;;;;;;7.50;70.70;;;;;;5021209;28;92198;-37
2022/11/11 07:13:05;;;;;;;;;;;7.50;70.90;;;;;;5021308;28;92392;-37
2022/11/11 07:15:30;;;;;;;;;;;7.40;70.80;;;;;;5020808;28;92657;-37
2022/11/11 07:17:56;;;;;;;;;;;7.50;71.00;;;;;;5021769;28;91458;-37
2022/11/11 07:20:21;;;;;;;;;;;7.40;71.20;;;;;;5021151;28;92239;-37
2022/11/11 07:22:47;;;;;;;;;;;7.40;71.50;;;;;;5023669;28;93042;-37
2022/11/11 07:25:12;;;;;;;;;;;7.50;71.20;;;;;;5020508;28;92914;-37
2022/11/11 07:27:38;;;;;;;;;;;7.40;71.30;;;;;;5020114;28;93279;-37
2022/11/11 07:30:04;;;;;;;;;;;7.50;71.50;;;;;;5021095;28;91987;-37
2022/11/11 07:32:30;;;;;;;;;;;7.50;71.10;;;;;;5020703;28;93998;-37
2022/11/11 07:34:55;;;;;;;;;;;7.50;71.20;;;;;;5020293;28;93060;-37
2022/11/11 07:37:21;;;;;;;;;;;7.40;71.30;;;;;;5020735;28;92089;-37
2022/11/11 07:39:47;;;;;;;;;;;7.40;71.30;;;;;;5020849;28;92214;-37
2022/11/11 07:42:12;;;;;;;;;;;7.50;71.10;;;;;;5020885;28;92197;-37
2022/11/11 07:44:38;;;;;;;;;;;7.50;71.30;;;;;;5023877;28;92214;-37
2022/11/11 07:47:03;;;;;;;;;;;7.40;71.10;;;;;;5020286;28;93355;-37
2022/11/11 07:49:29;;;;;;;;;;;7.50;71.20;;;;;;5020238;28;93126;-37
2022/11/11 07:51:54;;;;;;;;;;;7.40;71.30;;;;;;5020444;28;93404;-37
2022/11/11 07:54:20;;;;;;;;;;;7.50;71.50;;;;;;5020208;28;93025;-37
2022/11/11 07:56:45;;;;;;;;;;;7.50;71.60;;;;;;5020663;28;92252;-37
2022/11/11 07:59:11;;;;;;;;;;;7.50;71.70;;;;;;5020268;28;92665;-37
2022/11/11 08:01:36;;;;;;;;;;;7.50;71.50;;;;;;5019997;28;92789;-37
2022/11/11 08:04:02;;;;;;;;;;;7.40;71.50;;;;;;5023461;28;92144;-37
2022/11/11 08:06:27;;;;;;;;;;;7.50;71.50;;;;;;5020167;28;92257;-37
2022/11/11 08:08:53;;;;;;;;;;;7.40;71.60;;;;;;5020404;28;92139;-37
2022/11/11 08:13:39;;;;;;;;;;;7.40;71.50;;;;;;5020349;28;92621;-37
2022/11/11 08:14:03;;;;;;;;;;;7.40;71.70;;;;;;5019109;28;94880;-37
2022/11/11 08:16:29;;;;;;;;;;;7.50;71.50;;;;;;5020502;28;92183;-37
2022/11/11 08:18:57;;;;;;;;;;;7.50;71.30;;;;;;5020390;28;92470;-37
2022/11/11 08:21:23;;;;;;;;;;;7.50;71.50;;;;;;5019570;28;94511;-37
2022/11/11 08:23:48;;;;;;;;;;;7.50;71.70;;;;;;5020270;28;92225;-37
2022/11/11 08:26:14;;;;;;;;;;;7.50;71.80;;;;;;5022658;28;92327;-37
2022/11/11 08:28:39;;;;;;;;;;;7.50;71.70;;;;;;5020119;28;92221;-37
2022/11/11 08:31:05;;;;;;;;;;;7.50;71.80;;;;;;5020599;28;92401;-37
2022/11/11 08:33:31;;;;;;;;;;;7.50;71.70;;;;;;5019453;28;93434;-37
2022/11/11 08:35:58;;;;;;;;;;;7.40;71.80;;;;;;5019322;28;92278;-37
2022/11/11 08:38:24;;;;;;;;;;;7.50;71.80;;;;;;5019436;28;93070;-37
2022/11/11 08:40:50;;;;;;;;;;;7.50;71.80;;;;;;5019461;28;93336;-37
2022/11/11 08:43:15;;;;;;;;;;;7.50;71.70;;;;;;5020085;28;92135;-37
2022/11/11 08:45:41;;;;;;;;;;;7.50;72.10;;;;;;5019960;28;92375;-37
2022/11/11 08:48:08;;;;;;;;;;;7.50;72.10;;;;;;5022219;28;93167;-37
2022/11/11 08:50:35;;;;;;;;;;;7.50;72.10;;;;;;5019477;28;93945;-37
2022/11/11 08:53:01;;;;;;;;;;;7.50;72.10;;;;;;5019268;28;93000;-37
2022/11/11 08:55:26;;;;;;;;;;;7.50;72.10;;;;;;5020363;28;91401;-37
2022/11/11 08:57:59;;;;;;;;;;;7.50;72.00;;;;;;5019806;28;92175;-37
2022/11/11 09:00:24;;;;;;;;;;;7.50;72.00;;;;;;5019103;28;93297;-38
2022/11/11 09:02:50;;;;;;;;;;;7.50;71.90;;;;;;5017280;28;93086;-37
2022/11/11 09:05:15;;;;;;;;;;;7.50;72.90;;;;;;5019184;28;94591;-37
2022/11/11 09:07:41;;;;;;;;;;;7.50;72.00;;;;;;5019051;28;93167;-38
2022/11/11 09:10:07;;;;;;;;;;;7.50;72.40;;;;;;5021790;28;92030;-37
2022/11/11 09:12:32;;;;;;;;;;;7.50;72.20;;;;;;5018790;28;92411;-37
2022/11/11 09:15:00;;;;;;;;;;;7.50;72.30;;;;;;5019581;28;92468;-37
2022/11/11 09:17:25;;;;;;;;;;;7.50;72.30;;;;;;5019300;28;94061;-37
2022/11/11 09:19:51;;;;;;;;;;;7.50;72.30;;;;;;5019114;28;92353;-37
2022/11/11 09:22:16;;;;;;;;;;;7.50;72.70;;;;;;5019285;28;92097;-37
2022/11/11 09:24:42;;;;;;;;;;;7.50;72.40;;;;;;5019475;28;92421;-38
2022/11/11 09:27:09;;;;;;;;;;;7.60;72.70;;;;;;5018081;28;94059;-38
2022/11/11 09:29:34;;;;;;;;;;;7.60;72.90;;;;;;5019423;28;92199;-37
2022/11/11 09:32:00;;;;;;;;;;;7.60;72.90;;;;;;5021796;28;92411;-37
2022/11/11 09:34:25;;;;;;;;;;;7.60;73.00;;;;;;5019031;28;92308;-37
2022/11/11 09:36:51;;;;;;;;;;;7.60;73.00;;;;;;5018986;28;92465;-37
2022/11/11 09:39:16;;;;;;;;;;;7.60;72.90;;;;;;5018272;28;94360;-37
2022/11/11 09:42:05;;;;;;;;;;;7.60;72.90;;;;;;5019139;28;92176;-37
2022/11/11 09:44:42;;;;;;;;;;;7.60;72.90;;;;;;5019569;28;92400;-37
2022/11/11 09:47:31;;;;;;;;;;;7.60;73.30;;;;;;5018610;28;92801;-37
2022/11/11 09:50:01;;;;;;;;;;;7.60;73.60;;;;;;5019037;28;92090;-37
2022/11/11 09:52:32;;;;;;;;;;;7.60;73.60;;;;;;5018288;28;92998;-37
2022/11/11 09:55:01;;;;;;;;;;;7.60;73.70;;;;;;5021280;28;92985;-37
2022/11/11 09:57:44;;;;;;;;;;;7.60;74.00;;;;;;5018702;28;92431;-37
2022/11/11 10:00:15;;;;;;;;;;;7.60;74.40;;;;;;5018091;28;94560;-37
2022/11/11 10:02:49;;;;;;;;;;;7.60;74.30;;;;;;5018274;28;92210;-37
2022/11/11 10:05:35;;;;;;;;;;;7.60;74.30;;;;;;5018641;28;92908;-37
2022/11/11 10:08:04;;;;;;;;;;;7.60;74.30;;;;;;5009684;28;93210;-37
2022/11/11 10:10:37;;;;;;;;;;;7.60;74.50;;;;;;5018973;28;91439;-37
2022/11/11 10:13:03;;;;;;;;;;;7.60;74.60;;;;;;5018604;28;92086;-37
2022/11/11 10:15:32;;;;;;;;;;;7.60;74.60;;;;;;5020907;28;93338;-37
2022/11/11 10:18:06;;;;;;;;;;;7.60;74.60;;;;;;5017840;28;93484;-37
2022/11/11 10:20:33;;;;;;;;;;;7.70;74.70;;;;;;5018051;28;93044;-37
2022/11/11 10:23:09;;;;;;;;;;;7.60;74.50;;;;;;5021232;28;92217;-37
2022/11/11 10:25:35;;;;;;;;;;;7.70;74.90;;;;;;5021889;28;92394;-38
2022/11/11 10:28:01;;;;;;;;;;;7.70;74.80;;;;;;5021712;28;93183;-37
2022/11/11 10:30:30;;;;;;;;;;;7.70;74.90;;;;;;5021942;28;92162;-37
2022/11/11 10:32:58;;;;;;;;;;;7.70;74.90;;;;;;5021891;28;92357;-37
2022/11/11 10:35:25;;;;;;;;;;;7.60;74.80;;;;;;5021345;28;92303;-37
2022/11/11 10:37:57;;;;;;;;;;;7.60;74.80;;;;;;5025108;28;92333;-37
2022/11/11 10:40:36;;;;;;;;;;;7.60;74.60;;;;;;5021432;28;93172;-37
2022/11/11 10:43:02;;;;;;;;;;;7.60;74.90;;;;;;5021029;28;93104;-37
2022/11/11 10:45:30;;;;;;;;;;;7.70;74.80;;;;;;5021348;28;94807;-37
2022/11/11 10:48:07;;;;;;;;;;;7.70;74.70;;;;;;5020824;28;94992;-37
2022/11/11 10:50:43;;;;;;;;;;;7.70;74.60;;;;;;5021556;28;91984;-37
2022/11/11 10:53:15;;;;;;;;;;;7.70;74.60;;;;;;5021563;28;93879;-37
2022/11/11 10:55:46;;;;;;;;;;;7.70;74.60;;;;;;5020947;28;93137;-38
2022/11/11 10:58:26;;;;;;;;;;;7.70;74.70;;;;;;5021470;28;92697;-37
2022/11/11 11:00:53;;;;;;;;;;;7.70;74.70;;;;;;5024242;28;94015;-37
2022/11/11 11:03:24;;;;;;;;;;;7.70;74.60;;;;;;5020997;28;92200;-37
2022/11/11 11:06:09;;;;;;;;;;;7.70;74.60;;;;;;5021151;28;93906;-37
2022/11/11 11:08:37;;;;;;;;;;;7.70;74.60;;;;;;5019936;28;94301;-37
2022/11/11 11:11:08;;;;;;;;;;;7.70;74.60;;;;;;5021091;28;91991;-37
2022/11/11 11:13:42;;;;;;;;;;;7.70;74.70;;;;;;5021316;28;92389;-37
2022/11/11 11:16:12;;;;;;;;;;;7.70;74.70;;;;;;5020626;28;93113;-37
2022/11/11 11:18:37;;;;;;;;;;;7.80;74.70;;;;;;5021102;28;92146;-37
2022/11/11 11:21:04;;;;;;;;;;;7.80;74.80;;;;;;5021127;28;92159;-37
2022/11/11 11:23:40;;;;;;;;;;;7.80;74.90;;;;;;5023588;28;92078;-37
2022/11/11 11:26:07;;;;;;;;;;;7.80;74.90;;;;;;5021553;28;92296;-37
2022/11/11 11:28:33;;;;;;;;;;;7.80;74.80;;;;;;5020642;28;92217;-37
2022/11/11 11:30:58;;;;;;;;;;;7.80;74.70;;;;;;5021136;28;92234;-37
2022/11/11 11:33:24;;;;;;;;;;;7.80;74.80;;;;;;5019475;28;93054;-37
2022/11/11 11:35:49;;;;;;;;;;;7.80;74.90;;;;;;5019887;28;93146;-37
2022/11/11 11:38:15;;;;;;;;;;;7.80;74.90;;;;;;5021082;28;92180;-37
2022/11/11 11:40:57;;;;;;;;;;;7.90;75.00;;;;;;5021084;28;92475;-37
2022/11/11 11:43:32;;;;;;;;;;;7.90;74.90;;;;;;5020128;28;94659;-37
2022/11/11 11:45:59;;;;;;;;;;;7.90;74.90;;;;;;5023647;28;92205;-37
2022/11/11 11:48:31;;;;;;;;;;;7.90;74.90;;;;;;5020087;28;93016;-37
2022/11/11 11:51:02;;;;;;;;;;;7.90;75.10;;;;;;5021324;28;91385;-37
2022/11/11 11:53:33;;;;;;;;;;;7.90;74.90;;;;;;5020883;28;92054;-37
2022/11/11 11:56:11;;;;;;;;;;;7.90;74.90;;;;;;5020193;28;93127;-37
2022/11/11 11:58:39;;;;;;;;;;;7.90;74.90;;;;;;5019769;28;93096;-38
2022/11/11 12:01:09;;;;;;;;;;;8.00;74.90;;;;;;5020540;28;92967;-38
2022/11/11 12:04:01;;;;;;;;;;;8.00;75.00;;;;;;5019918;28;92291;-37
2022/11/11 12:06:35;;;;;;;;;;;8.00;75.00;;;;;;5020643;28;92571;-38
2022/11/11 12:09:05;;;;;;;;;;;8.00;74.90;;;;;;5022818;28;92071;-37
2022/11/11 12:11:35;;;;;;;;;;;8.00;74.90;;;;;;5020000;28;92516;-37
2022/11/11 12:14:15;;;;;;;;;;;8.00;74.90;;;;;;5020206;28;92449;-38
2022/11/11 12:16:44;;;;;;;;;;;8.00;74.90;;;;;;5020311;28;92463;-37
2022/11/11 12:19:26;;;;;;;;;;;8.00;74.90;;;;;;5020278;28;92088;-37
2022/11/11 12:22:00;;;;;;;;;;;8.00;74.90;;;;;;5020219;28;92395;-37
2022/11/11 12:24:44;;;;;;;;;;;8.00;74.90;;;;;;5018995;28;93908;-37
2022/11/11 12:27:28;;;;;;;;;;;8.00;74.80;;;;;;5020212;28;92220;-37
2022/11/11 12:29:54;;;;;;;;;;;8.00;74.80;;;;;;5022595;28;92357;-38
2022/11/11 12:32:38;;;;;;;;;;;8.00;74.80;;;;;;5020160;28;92227;-37
2022/11/11 12:35:12;;;;;;;;;;;8.00;74.70;;;;;;5019372;28;93964;-37
2022/11/11 12:38:01;;;;;;;;;;;8.00;74.80;;;;;;5019592;28;93172;-37
2022/11/11 12:40:34;;;;;;;;;;;8.00;74.70;;;;;;5019523;28;92148;-37
2022/11/11 12:43:18;;;;;;;;;;;8.00;74.70;;;;;;5020582;28;92432;-37
2022/11/11 12:45:47;;;;;;;;;;;8.00;74.70;;;;;;5018485;28;92908;-37
2022/11/11 12:48:12;;;;;;;;;;;8.00;74.60;;;;;;5019661;28;92146;-37
2022/11/11 12:50:45;;;;;;;;;;;8.10;74.80;;;;;;5019264;28;93009;-37
2022/11/11 12:53:42;;;;;;;;;;;8.00;74.70;;;;;;5022128;28;93203;-37
2022/11/11 12:56:14;;;;;;;;;;;8.10;74.80;;;;;;4995904;28;92412;-37
2022/11/11 12:59:02;;;;;;;;;;;8.00;74.70;;;;;;5019102;28;93659;-37
2022/11/11 13:01:31;;;;;;;;;;;8.00;74.80;;;;;;4999297;28;92005;-37
2022/11/11 13:07:05;;;;;;;;;;;8.10;74.80;;;;;;5018064;28;92181;-37
2022/11/11 13:09:42;;;;;;;;;;;8.10;74.90;;;;;;5020087;28;91159;-38
2022/11/11 13:12:11;;;;;;;;;;;8.10;74.90;;;;;;5019694;28;92086;-37
2022/11/11 13:15:03;;;;;;;;;;;8.10;75.00;;;;;;5018956;28;92846;-37
2022/11/11 13:17:30;;;;;;;;;;;8.10;74.90;;;;;;5019540;28;93033;-37
2022/11/11 13:19:58;;;;;;;;;;;8.10;74.90;;;;;;5018819;28;93260;-37
2022/11/11 13:22:25;;;;;;;;;;;8.10;74.70;;;;;;5018899;28;92349;-38
2022/11/11 13:24:51;;;;;;;;;;;8.10;74.80;;;;;;5019166;28;93816;-37
2022/11/11 13:27:35;;;;;;;;;;;8.10;74.80;;;;;;5018586;28;94181;-37
2022/11/11 13:30:04;;;;;;;;;;;8.10;74.90;;;;;;5019274;28;92157;-37
2022/11/11 13:32:32;;;;;;;;;;;8.20;74.90;;;;;;5019138;28;92535;-38
2022/11/11 13:34:58;;;;;;;;;;;8.10;75.50;;;;;;5018452;28;92557;-37
2022/11/11 13:37:27;;;;;;;;;;;8.10;75.00;;;;;;5019258;28;91977;-37
2022/11/11 13:39:54;;;;;;;;;;;8.20;75.00;;;;;;5021578;28;93763;-37
2022/11/11 13:42:21;;;;;;;;;;;8.20;75.00;;;;;;5018650;28;92964;-37
2022/11/11 13:44:49;;;;;;;;;;;8.10;74.90;;;;;;5019142;28;93658;-37
2022/11/11 13:47:19;;;;;;;;;;;8.20;75.00;;;;;;5018185;28;93166;-37
2022/11/11 13:49:55;;;;;;;;;;;8.20;74.90;;;;;;5018874;28;92158;-37
2022/11/11 13:52:23;;;;;;;;;;;8.20;74.90;;;;;;5018840;28;92402;-37
2022/11/11 13:54:53;;;;;;;;;;;8.20;74.80;;;;;;5018333;28;94490;-38
2022/11/11 13:57:20;;;;;;;;;;;8.20;74.80;;;;;;5020546;28;92181;-37
2022/11/11 13:59:54;;;;;;;;;;;8.20;74.90;;;;;;5023023;28;92432;-37
2022/11/11 14:02:19;;;;;;;;;;;8.20;74.80;;;;;;5025336;28;93525;-37
2022/11/11 14:05:13;;;;;;;;;;;8.20;74.80;;;;;;5022552;28;92241;-37
2022/11/11 14:07:42;;;;;;;;;;;8.20;74.80;;;;;;5021318;28;94126;-37
2022/11/11 14:10:08;;;;;;;;;;;8.20;74.80;;;;;;5022413;28;92043;-37
2022/11/11 14:12:38;;;;;;;;;;;8.20;75.40;;;;;;5022090;28;92387;-37
2022/11/11 14:15:06;;;;;;;;;;;8.30;74.70;;;;;;5021625;28;92988;-37
2022/11/11 14:17:32;;;;;;;;;;;8.20;74.70;;;;;;5022112;28;92194;-37
2022/11/11 14:19:58;;;;;;;;;;;8.20;74.70;;;;;;5022025;28;92386;-37
2022/11/11 14:22:27;;;;;;;;;;;8.30;74.70;;;;;;5021632;28;93230;-37
2022/11/11 14:24:52;;;;;;;;;;;8.30;74.60;;;;;;5025670;28;91384;-38
2022/11/11 14:27:23;;;;;;;;;;;8.30;74.70;;;;;;5021304;28;93267;-37
2022/11/11 14:29:53;;;;;;;;;;;8.30;74.60;;;;;;5022125;28;91957;-37
2022/11/11 14:32:30;;;;;;;;;;;8.30;74.60;;;;;;5021583;28;92954;-37
2022/11/11 14:35:01;;;;;;;;;;;8.30;74.60;;;;;;5020935;28;93061;-37
2022/11/11 14:37:36;;;;;;;;;;;8.30;74.60;;;;;;5021791;28;92346;-37
2022/11/11 14:40:01;;;;;;;;;;;8.30;74.60;;;;;;5022141;28;92344;-37
2022/11/11 14:42:33;;;;;;;;;;;8.30;74.40;;;;;;5021251;28;93165;-37
2022/11/11 14:44:59;;;;;;;;;;;8.30;74.40;;;;;;5023532;28;92721;-37
2022/11/11 14:47:35;;;;;;;;;;;8.30;74.40;;;;;;5021214;28;93152;-38
2022/11/11 14:50:01;;;;;;;;;;;8.30;74.50;;;;;;5022172;28;91419;-38
2022/11/11 14:52:29;;;;;;;;;;;8.30;74.50;;;;;;5021590;28;92718;-37
2022/11/11 14:55:06;;;;;;;;;;;8.30;74.50;;;;;;5021208;28;93341;-38
2022/11/11 14:57:44;;;;;;;;;;;8.30;74.50;;;;;;5020645;28;93071;-38
2022/11/11 15:00:09;;;;;;;;;;;8.30;74.50;;;;;;5021504;28;92990;-37
2022/11/11 15:02:37;;;;;;;;;;;8.30;74.50;;;;;;5020479;28;93077;-38
2022/11/11 15:05:05;;;;;;;;;;;8.30;74.40;;;;;;5021499;28;92215;-38
2022/11/11 15:07:48;;;;;;;;;;;8.30;74.40;;;;;;5023573;28;92377;-38
2022/11/11 15:10:18;;;;;;;;;;;8.40;74.40;;;;;;5020976;28;92195;-37
2022/11/11 15:12:49;;;;;;;;;;;8.40;74.30;;;;;;5021452;28;93055;-37
2022/11/11 15:15:22;;;;;;;;;;;8.40;74.40;;;;;;5021124;28;92335;-38
2022/11/11 15:17:53;;;;;;;;;;;8.40;74.40;;;;;;5020922;28;92171;-37
2022/11/11 15:20:37;;;;;;;;;;;8.40;74.40;;;;;;5021069;28;93996;-37
2022/11/11 15:23:05;;;;;;;;;;;8.40;74.40;;;;;;5020018;28;93181;-37
2022/11/11 15:25:34;;;;;;;;;;;8.40;74.40;;;;;;5021035;28;92413;-37
2022/11/11 15:28:04;;;;;;;;;;;8.40;74.40;;;;;;5021103;28;92167;-37
2022/11/11 15:30:48;;;;;;;;;;;8.40;74.40;;;;;;5023351;28;94083;-37
2022/11/11 15:33:34;;;;;;;;;;;8.40;74.20;;;;;;5021219;28;92063;-37
2022/11/11 15:36:05;;;;;;;;;;;8.40;74.30;;;;;;5019133;28;93298;-37
2022/11/11 15:38:31;;;;;;;;;;;8.40;74.20;;;;;;5021091;28;92044;-37
2022/11/11 15:40:57;;;;;;;;;;;8.40;74.20;;;;;;5021451;28;92468;-38
2022/11/11 15:43:25;;;;;;;;;;;8.40;74.20;;;;;;5020206;28;92246;-38
2022/11/11 15:45:52;;;;;;;;;;;8.40;74.10;;;;;;5020730;28;92142;-37
2022/11/11 15:48:19;;;;;;;;;;;8.40;74.00;;;;;;5020201;28;92980;-37
2022/11/11 15:50:45;;;;;;;;;;;8.40;74.00;;;;;;5019913;28;92988;-37
2022/11/11 15:53:11;;;;;;;;;;;8.40;74.00;;;;;;5023728;28;92156;-37
2022/11/11 15:55:38;;;;;;;;;;;8.40;74.60;;;;;;5019990;28;93152;-37